Te Rauamoa, New Zealand
Current Conditions -  °F | °C
As of 3:00 PM on Thursday 23 Oct 2014 (Local Time) from NZAA Reporting Station
Broken Clouds Broken Clouds  
Wind Chill: 63°   Ceiling: 3700
Heat Index: 63°   Visibility: 6mi
Dew Point: 55°   Wind: 15mph
Humidity: 77%   Direction: 230°SW
Pressure: 30"   Gusts: NA
Location:  38.06°S, 174.82°E
Report Text: NZAA 230300Z AUTO 23013KT 9999 FEW020/// SCT025/// BKN037///17/13 Q1016 NOSIG
Loading
Personal Weather Stations






























Interactive Weather Map
Tropical Storm Tracking
New forecast layout! Learn more

10-Day Weather Forecast

Advertisements
Track Severe Weather on mobile